sensor_id;sensor_type;location;lat;lon;timestamp;P1;durP1;ratioP1;P2;durP2;ratioP2
8399;SDS011;4237;47.030;15.396;2023-11-18T00:00:20;1.00;;;0.90;;
8399;SDS011;4237;47.030;15.396;2023-11-18T00:02:52;1.00;;;0.90;;
8399;SDS011;4237;47.030;15.396;2023-11-18T00:05:21;1.00;;;0.80;;
8399;SDS011;4237;47.030;15.396;2023-11-18T00:07:50;1.17;;;1.07;;
8399;SDS011;4237;47.030;15.396;2023-11-18T00:10:19;1.30;;;1.10;;
8399;SDS011;4237;47.030;15.396;2023-11-18T00:12:47;1.47;;;1.00;;
8399;SDS011;4237;47.030;15.396;2023-11-18T00:15:16;1.77;;;1.10;;
8399;SDS011;4237;47.030;15.396;2023-11-18T00:17:47;1.93;;;1.10;;
8399;SDS011;4237;47.030;15.396;2023-11-18T00:20:15;1.10;;;1.00;;
8399;SDS011;4237;47.030;15.396;2023-11-18T00:22:45;1.20;;;1.10;;
8399;SDS011;4237;47.030;15.396;2023-11-18T00:25:14;1.20;;;1.10;;
8399;SDS011;4237;47.030;15.396;2023-11-18T00:27:42;1.27;;;1.00;;
8399;SDS011;4237;47.030;15.396;2023-11-18T00:30:11;1.13;;;1.03;;
8399;SDS011;4237;47.030;15.396;2023-11-18T00:32:40;1.10;;;1.00;;
8399;SDS011;4237;47.030;15.396;2023-11-18T00:35:08;1.30;;;1.10;;
8399;SDS011;4237;47.030;15.396;2023-11-18T00:37:37;1.10;;;1.00;;
8399;SDS011;4237;47.030;15.396;2023-11-18T00:40:07;1.10;;;1.00;;
8399;SDS011;4237;47.030;15.396;2023-11-18T00:42:36;1.57;;;1.30;;
8399;SDS011;4237;47.030;15.396;2023-11-18T00:45:06;1.40;;;1.13;;
8399;SDS011;4237;47.030;15.396;2023-11-18T00:47:35;1.17;;;1.07;;
8399;SDS011;4237;47.030;15.396;2023-11-18T00:50:04;1.27;;;1.10;;
8399;SDS011;4237;47.030;15.396;2023-11-18T00:52:35;1.70;;;1.20;;
8399;SDS011;4237;47.030;15.396;2023-11-18T00:55:08;1.37;;;1.07;;
8399;SDS011;4237;47.030;15.396;2023-11-18T00:57:40;1.57;;;1.30;;
8399;SDS011;4237;47.030;15.396;2023-11-18T01:00:15;1.80;;;1.10;;
8399;SDS011;4237;47.030;15.396;2023-11-18T01:02:46;1.90;;;1.13;;
8399;SDS011;4237;47.030;15.396;2023-11-18T01:05:16;1.20;;;1.10;;
8399;SDS011;4237;47.030;15.396;2023-11-18T01:07:45;1.03;;;1.00;;
8399;SDS011;4237;47.030;15.396;2023-11-18T01:10:14;1.57;;;1.20;;
8399;SDS011;4237;47.030;15.396;2023-11-18T01:12:43;1.47;;;1.20;;
8399;SDS011;4237;47.030;15.396;2023-11-18T01:15:12;2.50;;;1.30;;
8399;SDS011;4237;47.030;15.396;2023-11-18T01:17:44;1.40;;;1.20;;
8399;SDS011;4237;47.030;15.396;2023-11-18T01:20:13;1.80;;;1.40;;
8399;SDS011;4237;47.030;15.396;2023-11-18T01:22:43;1.20;;;1.10;;
8399;SDS011;4237;47.030;15.396;2023-11-18T01:25:12;1.77;;;1.30;;
8399;SDS011;4237;47.030;15.396;2023-11-18T01:27:43;2.77;;;1.67;;
8399;SDS011;4237;47.030;15.396;2023-11-18T01:30:14;1.63;;;1.47;;
8399;SDS011;4237;47.030;15.396;2023-11-18T01:32:43;2.10;;;1.60;;
8399;SDS011;4237;47.030;15.396;2023-11-18T01:35:13;1.83;;;1.30;;
8399;SDS011;4237;47.030;15.396;2023-11-18T01:37:41;1.13;;;1.03;;
8399;SDS011;4237;47.030;15.396;2023-11-18T01:40:11;1.20;;;1.10;;
8399;SDS011;4237;47.030;15.396;2023-11-18T01:42:41;1.10;;;1.00;;
8399;SDS011;4237;47.030;15.396;2023-11-18T01:45:13;1.13;;;1.03;;
8399;SDS011;4237;47.030;15.396;2023-11-18T01:47:44;1.60;;;1.30;;
8399;SDS011;4237;47.030;15.396;2023-11-18T01:50:15;1.20;;;1.10;;
8399;SDS011;4237;47.030;15.396;2023-11-18T01:52:45;1.40;;;1.30;;
8399;SDS011;4237;47.030;15.396;2023-11-18T01:55:14;1.23;;;1.10;;
8399;SDS011;4237;47.030;15.396;2023-11-18T01:57:43;1.40;;;1.03;;
8399;SDS011;4237;47.030;15.396;2023-11-18T02:00:12;2.23;;;1.20;;
8399;SDS011;4237;47.030;15.396;2023-11-18T02:02:43;1.77;;;1.50;;
8399;SDS011;4237;47.030;15.396;2023-11-18T02:05:12;1.53;;;1.37;;
8399;SDS011;4237;47.030;15.396;2023-11-18T02:07:40;1.80;;;1.30;;
8399;SDS011;4237;47.030;15.396;2023-11-18T02:10:10;1.10;;;1.07;;
8399;SDS011;4237;47.030;15.396;2023-11-18T02:15:28;1.40;;;1.30;;
8399;SDS011;4237;47.030;15.396;2023-11-18T02:17:58;1.20;;;1.10;;
8399;SDS011;4237;47.030;15.396;2023-11-18T02:20:30;1.13;;;1.00;;
8399;SDS011;4237;47.030;15.396;2023-11-18T02:22:59;1.40;;;1.10;;
8399;SDS011;4237;47.030;15.396;2023-11-18T02:25:29;2.33;;;1.20;;
8399;SDS011;4237;47.030;15.396;2023-11-18T02:28:01;1.33;;;1.20;;
8399;SDS011;4237;47.030;15.396;2023-11-18T02:30:29;1.23;;;1.13;;
8399;SDS011;4237;47.030;15.396;2023-11-18T02:32:59;1.23;;;1.07;;
8399;SDS011;4237;47.030;15.396;2023-11-18T02:35:48;1.53;;;1.20;;
8399;SDS011;4237;47.030;15.396;2023-11-18T02:38:27;1.37;;;1.23;;
8399;SDS011;4237;47.030;15.396;2023-11-18T02:40:58;0.80;;;0.80;;
8399;SDS011;4237;47.030;15.396;2023-11-18T02:43:31;1.13;;;1.03;;
8399;SDS011;4237;47.030;15.396;2023-11-18T02:46:06;1.30;;;1.20;;
8399;SDS011;4237;47.030;15.396;2023-11-18T02:48:38;1.57;;;1.17;;
8399;SDS011;4237;47.030;15.396;2023-11-18T02:51:09;1.30;;;1.20;;
8399;SDS011;4237;47.030;15.396;2023-11-18T02:53:39;1.30;;;1.20;;
8399;SDS011;4237;47.030;15.396;2023-11-18T02:56:08;2.77;;;2.20;;
8399;SDS011;4237;47.030;15.396;2023-11-18T02:58:36;2.63;;;1.87;;
8399;SDS011;4237;47.030;15.396;2023-11-18T03:01:05;2.10;;;1.63;;
8399;SDS011;4237;47.030;15.396;2023-11-18T03:03:34;2.83;;;1.53;;
8399;SDS011;4237;47.030;15.396;2023-11-18T03:06:03;1.43;;;1.30;;
8399;SDS011;4237;47.030;15.396;2023-11-18T03:08:33;2.63;;;1.33;;
8399;SDS011;4237;47.030;15.396;2023-11-18T03:11:02;2.70;;;1.40;;
8399;SDS011;4237;47.030;15.396;2023-11-18T03:13:31;1.50;;;1.40;;
8399;SDS011;4237;47.030;15.396;2023-11-18T03:16:00;1.77;;;1.30;;
8399;SDS011;4237;47.030;15.396;2023-11-18T03:18:30;2.20;;;1.50;;
8399;SDS011;4237;47.030;15.396;2023-11-18T03:20:59;1.37;;;1.27;;
8399;SDS011;4237;47.030;15.396;2023-11-18T03:23:27;1.87;;;1.60;;
8399;SDS011;4237;47.030;15.396;2023-11-18T03:25:56;2.37;;;1.90;;
8399;SDS011;4237;47.030;15.396;2023-11-18T03:28:24;2.70;;;2.30;;
8399;SDS011;4237;47.030;15.396;2023-11-18T03:30:53;2.50;;;2.23;;
8399;SDS011;4237;47.030;15.396;2023-11-18T03:33:21;4.17;;;2.40;;
8399;SDS011;4237;47.030;15.396;2023-11-18T03:35:50;2.87;;;2.57;;
8399;SDS011;4237;47.030;15.396;2023-11-18T03:38:19;4.13;;;2.67;;
8399;SDS011;4237;47.030;15.396;2023-11-18T03:40:48;5.20;;;2.37;;
8399;SDS011;4237;47.030;15.396;2023-11-18T03:43:19;4.30;;;2.87;;
8399;SDS011;4237;47.030;15.396;2023-11-18T03:45:47;4.03;;;2.70;;
8399;SDS011;4237;47.030;15.396;2023-11-18T03:48:16;3.60;;;2.67;;
8399;SDS011;4237;47.030;15.396;2023-11-18T03:50:45;3.37;;;2.60;;
8399;SDS011;4237;47.030;15.396;2023-11-18T03:53:14;3.70;;;3.03;;
8399;SDS011;4237;47.030;15.396;2023-11-18T03:55:42;3.27;;;2.97;;
8399;SDS011;4237;47.030;15.396;2023-11-18T03:58:11;3.30;;;2.77;;
8399;SDS011;4237;47.030;15.396;2023-11-18T04:00:42;4.93;;;2.80;;
8399;SDS011;4237;47.030;15.396;2023-11-18T04:03:11;3.50;;;2.73;;
8399;SDS011;4237;47.030;15.396;2023-11-18T04:05:40;3.80;;;2.87;;
8399;SDS011;4237;47.030;15.396;2023-11-18T04:08:11;3.20;;;2.60;;
8399;SDS011;4237;47.030;15.396;2023-11-18T04:10:40;4.37;;;2.60;;
8399;SDS011;4237;47.030;15.396;2023-11-18T04:13:08;3.47;;;2.60;;
8399;SDS011;4237;47.030;15.396;2023-11-18T04:15:37;4.93;;;2.70;;
8399;SDS011;4237;47.030;15.396;2023-11-18T04:18:05;4.13;;;3.07;;
8399;SDS011;4237;47.030;15.396;2023-11-18T04:20:34;3.03;;;2.67;;
8399;SDS011;4237;47.030;15.396;2023-11-18T04:23:03;3.63;;;3.10;;
8399;SDS011;4237;47.030;15.396;2023-11-18T04:25:32;4.20;;;3.47;;
8399;SDS011;4237;47.030;15.396;2023-11-18T04:28:01;6.80;;;4.40;;
8399;SDS011;4237;47.030;15.396;2023-11-18T04:30:31;5.80;;;4.27;;
8399;SDS011;4237;47.030;15.396;2023-11-18T04:32:59;5.03;;;3.60;;
8399;SDS011;4237;47.030;15.396;2023-11-18T04:35:28;3.67;;;2.60;;
8399;SDS011;4237;47.030;15.396;2023-11-18T04:37:57;3.70;;;2.63;;
8399;SDS011;4237;47.030;15.396;2023-11-18T04:40:25;4.33;;;3.40;;
8399;SDS011;4237;47.030;15.396;2023-11-18T04:45:42;3.93;;;3.10;;
8399;SDS011;4237;47.030;15.396;2023-11-18T04:48:11;3.90;;;3.10;;
8399;SDS011;4237;47.030;15.396;2023-11-18T04:50:42;4.13;;;3.20;;
8399;SDS011;4237;47.030;15.396;2023-11-18T04:53:11;3.60;;;3.30;;
8399;SDS011;4237;47.030;15.396;2023-11-18T04:55:39;4.87;;;3.60;;
8399;SDS011;4237;47.030;15.396;2023-11-18T04:58:08;3.27;;;2.80;;
8399;SDS011;4237;47.030;15.396;2023-11-18T05:00:37;4.07;;;2.87;;
8399;SDS011;4237;47.030;15.396;2023-11-18T05:03:06;3.30;;;2.73;;
8399;SDS011;4237;47.030;15.396;2023-11-18T05:05:36;4.57;;;2.90;;
8399;SDS011;4237;47.030;15.396;2023-11-18T05:08:05;2.77;;;2.53;;
8399;SDS011;4237;47.030;15.396;2023-11-18T05:10:35;3.37;;;2.90;;
8399;SDS011;4237;47.030;15.396;2023-11-18T05:13:05;3.60;;;2.70;;
8399;SDS011;4237;47.030;15.396;2023-11-18T05:15:33;3.93;;;3.23;;
8399;SDS011;4237;47.030;15.396;2023-11-18T05:18:04;5.07;;;3.27;;
8399;SDS011;4237;47.030;15.396;2023-11-18T05:20:34;4.30;;;3.07;;
8399;SDS011;4237;47.030;15.396;2023-11-18T05:23:04;3.27;;;2.90;;
8399;SDS011;4237;47.030;15.396;2023-11-18T05:25:32;5.30;;;3.17;;
8399;SDS011;4237;47.030;15.396;2023-11-18T05:28:01;5.47;;;3.00;;
8399;SDS011;4237;47.030;15.396;2023-11-18T05:30:32;3.23;;;2.80;;
8399;SDS011;4237;47.030;15.396;2023-11-18T05:33:02;3.67;;;2.80;;
8399;SDS011;4237;47.030;15.396;2023-11-18T05:35:36;4.07;;;3.33;;
8399;SDS011;4237;47.030;15.396;2023-11-18T05:38:05;3.90;;;3.07;;
8399;SDS011;4237;47.030;15.396;2023-11-18T05:40:33;3.50;;;2.70;;
8399;SDS011;4237;47.030;15.396;2023-11-18T05:43:04;6.10;;;3.30;;
8399;SDS011;4237;47.030;15.396;2023-11-18T05:45:34;5.03;;;3.23;;
8399;SDS011;4237;47.030;15.396;2023-11-18T05:48:06;4.00;;;3.50;;
8399;SDS011;4237;47.030;15.396;2023-11-18T05:50:34;5.00;;;3.43;;
8399;SDS011;4237;47.030;15.396;2023-11-18T05:53:04;5.70;;;3.40;;
8399;SDS011;4237;47.030;15.396;2023-11-18T05:55:32;6.23;;;3.37;;
8399;SDS011;4237;47.030;15.396;2023-11-18T05:58:01;4.13;;;3.60;;
8399;SDS011;4237;47.030;15.396;2023-11-18T06:00:29;5.93;;;3.40;;
8399;SDS011;4237;47.030;15.396;2023-11-18T06:02:58;4.07;;;3.67;;
8399;SDS011;4237;47.030;15.396;2023-11-18T06:05:27;4.43;;;3.67;;
8399;SDS011;4237;47.030;15.396;2023-11-18T06:07:56;5.90;;;3.57;;
8399;SDS011;4237;47.030;15.396;2023-11-18T06:10:25;4.43;;;3.70;;
8399;SDS011;4237;47.030;15.396;2023-11-18T06:12:55;4.63;;;3.60;;
8399;SDS011;4237;47.030;15.396;2023-11-18T06:15:25;4.27;;;3.40;;
8399;SDS011;4237;47.030;15.396;2023-11-18T06:17:54;4.63;;;3.47;;
8399;SDS011;4237;47.030;15.396;2023-11-18T06:20:23;4.60;;;3.50;;
8399;SDS011;4237;47.030;15.396;2023-11-18T06:22:51;4.03;;;3.47;;
8399;SDS011;4237;47.030;15.396;2023-11-18T06:25:20;6.37;;;4.10;;
8399;SDS011;4237;47.030;15.396;2023-11-18T06:27:50;8.33;;;6.60;;
8399;SDS011;4237;47.030;15.396;2023-11-18T06:30:22;7.73;;;5.87;;
8399;SDS011;4237;47.030;15.396;2023-11-18T06:32:50;4.57;;;3.77;;
8399;SDS011;4237;47.030;15.396;2023-11-18T06:35:19;5.53;;;4.40;;
8399;SDS011;4237;47.030;15.396;2023-11-18T06:37:48;9.50;;;7.20;;
8399;SDS011;4237;47.030;15.396;2023-11-18T06:40:21;6.67;;;4.60;;
8399;SDS011;4237;47.030;15.396;2023-11-18T06:42:51;9.87;;;6.30;;
8399;SDS011;4237;47.030;15.396;2023-11-18T06:45:21;8.53;;;5.73;;
8399;SDS011;4237;47.030;15.396;2023-11-18T06:47:50;9.03;;;5.70;;
8399;SDS011;4237;47.030;15.396;2023-11-18T06:50:18;9.20;;;6.83;;
8399;SDS011;4237;47.030;15.396;2023-11-18T06:52:48;12.90;;;8.87;;
8399;SDS011;4237;47.030;15.396;2023-11-18T06:55:18;12.40;;;8.93;;
8399;SDS011;4237;47.030;15.396;2023-11-18T06:57:46;12.73;;;7.20;;
8399;SDS011;4237;47.030;15.396;2023-11-18T07:00:15;8.73;;;6.13;;
8399;SDS011;4237;47.030;15.396;2023-11-18T07:02:44;7.77;;;5.60;;
8399;SDS011;4237;47.030;15.396;2023-11-18T07:05:14;5.90;;;4.93;;
8399;SDS011;4237;47.030;15.396;2023-11-18T07:07:42;5.80;;;4.60;;
8399;SDS011;4237;47.030;15.396;2023-11-18T07:10:12;6.57;;;4.83;;
8399;SDS011;4237;47.030;15.396;2023-11-18T07:12:41;5.33;;;4.13;;
8399;SDS011;4237;47.030;15.396;2023-11-18T07:15:10;6.50;;;5.00;;
8399;SDS011;4237;47.030;15.396;2023-11-18T07:17:38;6.37;;;5.20;;
8399;SDS011;4237;47.030;15.396;2023-11-18T07:20:08;6.57;;;5.77;;
8399;SDS011;4237;47.030;15.396;2023-11-18T07:22:39;7.77;;;5.80;;
8399;SDS011;4237;47.030;15.396;2023-11-18T07:25:08;8.73;;;5.90;;
8399;SDS011;4237;47.030;15.396;2023-11-18T07:27:36;8.07;;;4.07;;
8399;SDS011;4237;47.030;15.396;2023-11-18T07:30:06;6.10;;;4.47;;
8399;SDS011;4237;47.030;15.396;2023-11-18T07:32:36;6.87;;;4.73;;
8399;SDS011;4237;47.030;15.396;2023-11-18T07:35:07;5.03;;;3.47;;
8399;SDS011;4237;47.030;15.396;2023-11-18T07:37:36;4.17;;;3.20;;
8399;SDS011;4237;47.030;15.396;2023-11-18T07:40:06;6.97;;;4.07;;
8399;SDS011;4237;47.030;15.396;2023-11-18T07:42:35;6.03;;;3.67;;
8399;SDS011;4237;47.030;15.396;2023-11-18T07:45:04;5.93;;;3.50;;
8399;SDS011;4237;47.030;15.396;2023-11-18T07:47:35;5.50;;;3.00;;
8399;SDS011;4237;47.030;15.396;2023-11-18T07:50:06;5.17;;;3.03;;
8399;SDS011;4237;47.030;15.396;2023-11-18T07:52:38;4.57;;;3.00;;
8399;SDS011;4237;47.030;15.396;2023-11-18T07:55:08;3.07;;;2.53;;
8399;SDS011;4237;47.030;15.396;2023-11-18T07:57:37;3.40;;;2.70;;
8399;SDS011;4237;47.030;15.396;2023-11-18T08:00:07;3.67;;;3.10;;
8399;SDS011;4237;47.030;15.396;2023-11-18T08:02:36;4.27;;;3.10;;
8399;SDS011;4237;47.030;15.396;2023-11-18T08:05:07;4.17;;;3.03;;
8399;SDS011;4237;47.030;15.396;2023-11-18T08:07:38;4.20;;;2.90;;
8399;SDS011;4237;47.030;15.396;2023-11-18T08:10:08;4.83;;;3.20;;
8399;SDS011;4237;47.030;15.396;2023-11-18T08:12:40;3.30;;;3.00;;
8399;SDS011;4237;47.030;15.396;2023-11-18T08:15:10;2.60;;;2.40;;
8399;SDS011;4237;47.030;15.396;2023-11-18T08:17:39;3.33;;;2.47;;
8399;SDS011;4237;47.030;15.396;2023-11-18T08:20:08;5.73;;;2.77;;
8399;SDS011;4237;47.030;15.396;2023-11-18T08:22:43;3.13;;;2.83;;
8399;SDS011;4237;47.030;15.396;2023-11-18T08:25:12;3.40;;;2.40;;
8399;SDS011;4237;47.030;15.396;2023-11-18T08:27:41;4.57;;;3.50;;
8399;SDS011;4237;47.030;15.396;2023-11-18T08:30:12;4.73;;;3.67;;
8399;SDS011;4237;47.030;15.396;2023-11-18T08:32:44;3.43;;;3.13;;
8399;SDS011;4237;47.030;15.396;2023-11-18T08:35:14;3.53;;;2.63;;
8399;SDS011;4237;47.030;15.396;2023-11-18T08:37:43;3.13;;;2.83;;
8399;SDS011;4237;47.030;15.396;2023-11-18T08:40:12;3.77;;;2.60;;
8399;SDS011;4237;47.030;15.396;2023-11-18T08:42:42;3.77;;;2.80;;
8399;SDS011;4237;47.030;15.396;2023-11-18T08:45:14;3.60;;;2.90;;
8399;SDS011;4237;47.030;15.396;2023-11-18T08:47:49;4.43;;;2.90;;
8399;SDS011;4237;47.030;15.396;2023-11-18T08:50:19;2.90;;;2.40;;
8399;SDS011;4237;47.030;15.396;2023-11-18T08:52:51;4.03;;;2.80;;
8399;SDS011;4237;47.030;15.396;2023-11-18T08:55:22;3.60;;;2.80;;
8399;SDS011;4237;47.030;15.396;2023-11-18T08:57:53;3.70;;;3.10;;
8399;SDS011;4237;47.030;15.396;2023-11-18T09:00:30;3.67;;;2.57;;
8399;SDS011;4237;47.030;15.396;2023-11-18T09:03:14;2.87;;;2.30;;
8399;SDS011;4237;47.030;15.396;2023-11-18T09:05:58;2.27;;;2.07;;
8399;SDS011;4237;47.030;15.396;2023-11-18T09:08:36;2.93;;;2.13;;
8399;SDS011;4237;47.030;15.396;2023-11-18T09:11:06;2.20;;;2.00;;
8399;SDS011;4237;47.030;15.396;2023-11-18T09:13:44;2.30;;;2.10;;
8399;SDS011;4237;47.030;15.396;2023-11-18T09:16:18;1.87;;;1.73;;
8399;SDS011;4237;47.030;15.396;2023-11-18T09:18:49;2.33;;;1.70;;
8399;SDS011;4237;47.030;15.396;2023-11-18T09:21:18;2.87;;;2.53;;
8399;SDS011;4237;47.030;15.396;2023-11-18T09:23:48;1.83;;;1.70;;
8399;SDS011;4237;47.030;15.396;2023-11-18T09:26:17;5.00;;;2.20;;
8399;SDS011;4237;47.030;15.396;2023-11-18T09:28:47;2.60;;;2.40;;
8399;SDS011;4237;47.030;15.396;2023-11-18T09:31:18;3.17;;;2.60;;
8399;SDS011;4237;47.030;15.396;2023-11-18T09:33:48;3.23;;;2.30;;
8399;SDS011;4237;47.030;15.396;2023-11-18T09:36:19;2.77;;;2.43;;
8399;SDS011;4237;47.030;15.396;2023-11-18T09:38:49;2.53;;;2.33;;
8399;SDS011;4237;47.030;15.396;2023-11-18T09:41:19;3.97;;;2.27;;
8399;SDS011;4237;47.030;15.396;2023-11-18T09:43:52;2.13;;;1.90;;
8399;SDS011;4237;47.030;15.396;2023-11-18T09:46:27;1.90;;;1.67;;
8399;SDS011;4237;47.030;15.396;2023-11-18T09:49:04;2.90;;;2.03;;
8399;SDS011;4237;47.030;15.396;2023-11-18T09:51:37;3.73;;;2.27;;
8399;SDS011;4237;47.030;15.396;2023-11-18T09:54:12;3.63;;;2.30;;
8399;SDS011;4237;47.030;15.396;2023-11-18T09:56:56;3.27;;;2.60;;
8399;SDS011;4237;47.030;15.396;2023-11-18T09:59:31;4.43;;;2.40;;
8399;SDS011;4237;47.030;15.396;2023-11-18T10:02:03;2.50;;;2.30;;
8399;SDS011;4237;47.030;15.396;2023-11-18T10:04:33;2.87;;;2.10;;
8399;SDS011;4237;47.030;15.396;2023-11-18T10:07:04;2.20;;;2.00;;
8399;SDS011;4237;47.030;15.396;2023-11-18T10:09:36;3.57;;;2.43;;
8399;SDS011;4237;47.030;15.396;2023-11-18T10:12:07;3.07;;;2.57;;
8399;SDS011;4237;47.030;15.396;2023-11-18T10:14:41;1.40;;;1.30;;
8399;SDS011;4237;47.030;15.396;2023-11-18T10:17:10;2.00;;;1.80;;
8399;SDS011;4237;47.030;15.396;2023-11-18T10:19:50;2.13;;;1.70;;
8399;SDS011;4237;47.030;15.396;2023-11-18T10:24:55;4.10;;;2.33;;
8399;SDS011;4237;47.030;15.396;2023-11-18T10:27:24;3.93;;;3.20;;
8399;SDS011;4237;47.030;15.396;2023-11-18T10:30:06;10.20;;;6.13;;
8399;SDS011;4237;47.030;15.396;2023-11-18T10:32:37;4.90;;;3.80;;
8399;SDS011;4237;47.030;15.396;2023-11-18T10:35:06;3.53;;;2.77;;
8399;SDS011;4237;47.030;15.396;2023-11-18T10:37:37;2.93;;;2.30;;
8399;SDS011;4237;47.030;15.396;2023-11-18T10:40:09;2.63;;;1.43;;
8399;SDS011;4237;47.030;15.396;2023-11-18T10:42:40;2.20;;;1.83;;
8399;SDS011;4237;47.030;15.396;2023-11-18T10:45:11;2.17;;;1.70;;
8399;SDS011;4237;47.030;15.396;2023-11-18T10:47:42;3.67;;;2.30;;
8399;SDS011;4237;47.030;15.396;2023-11-18T10:50:10;3.20;;;2.30;;
8399;SDS011;4237;47.030;15.396;2023-11-18T10:52:39;2.73;;;2.20;;
8399;SDS011;4237;47.030;15.396;2023-11-18T10:55:08;2.63;;;2.43;;
8399;SDS011;4237;47.030;15.396;2023-11-18T10:57:40;2.97;;;2.57;;
8399;SDS011;4237;47.030;15.396;2023-11-18T11:00:09;2.83;;;2.20;;
8399;SDS011;4237;47.030;15.396;2023-11-18T11:02:41;2.63;;;2.00;;
8399;SDS011;4237;47.030;15.396;2023-11-18T11:05:10;2.87;;;2.57;;
8399;SDS011;4237;47.030;15.396;2023-11-18T11:07:42;3.77;;;2.17;;
8399;SDS011;4237;47.030;15.396;2023-11-18T11:10:11;3.70;;;2.90;;
8399;SDS011;4237;47.030;15.396;2023-11-18T11:12:42;4.63;;;3.37;;
8399;SDS011;4237;47.030;15.396;2023-11-18T11:15:15;2.93;;;2.63;;
8399;SDS011;4237;47.030;15.396;2023-11-18T11:17:48;2.40;;;2.20;;
8399;SDS011;4237;47.030;15.396;2023-11-18T11:20:24;1.93;;;1.60;;
8399;SDS011;4237;47.030;15.396;2023-11-18T11:23:21;2.50;;;1.90;;
8399;SDS011;4237;47.030;15.396;2023-11-18T11:25:43;4.53;;;4.13;;
8399;SDS011;4237;47.030;15.396;2023-11-18T11:28:22;2.30;;;1.67;;
8399;SDS011;4237;47.030;15.396;2023-11-18T11:30:58;2.63;;;1.93;;
8399;SDS011;4237;47.030;15.396;2023-11-18T11:33:34;1.97;;;1.80;;
8399;SDS011;4237;47.030;15.396;2023-11-18T11:36:09;1.93;;;1.83;;
8399;SDS011;4237;47.030;15.396;2023-11-18T11:38:39;1.83;;;1.73;;
8399;SDS011;4237;47.030;15.396;2023-11-18T11:41:10;1.57;;;1.47;;
8399;SDS011;4237;47.030;15.396;2023-11-18T11:43:40;3.07;;;1.67;;
8399;SDS011;4237;47.030;15.396;2023-11-18T11:46:10;1.40;;;1.00;;
8399;SDS011;4237;47.030;15.396;2023-11-18T11:48:40;0.47;;;0.47;;
8399;SDS011;4237;47.030;15.396;2023-11-18T11:51:19;0.30;;;0.30;;
8399;SDS011;4237;47.030;15.396;2023-11-18T11:53:58;0.33;;;0.33;;
8399;SDS011;4237;47.030;15.396;2023-11-18T11:56:41;0.40;;;0.40;;
8399;SDS011;4237;47.030;15.396;2023-11-18T11:59:10;0.40;;;0.40;;
8399;SDS011;4237;47.030;15.396;2023-11-18T12:01:39;0.70;;;0.50;;
8399;SDS011;4237;47.030;15.396;2023-11-18T12:04:10;1.33;;;0.40;;
8399;SDS011;4237;47.030;15.396;2023-11-18T12:06:41;0.60;;;0.50;;
8399;SDS011;4237;47.030;15.396;2023-11-18T12:09:11;0.83;;;0.40;;
8399;SDS011;4237;47.030;15.396;2023-11-18T12:11:46;0.30;;;0.30;;
8399;SDS011;4237;47.030;15.396;2023-11-18T12:14:18;0.47;;;0.30;;
8399;SDS011;4237;47.030;15.396;2023-11-18T12:16:57;0.60;;;0.33;;
8399;SDS011;4237;47.030;15.396;2023-11-18T12:19:44;0.30;;;0.30;;
8399;SDS011;4237;47.030;15.396;2023-11-18T12:22:18;0.40;;;0.40;;
8399;SDS011;4237;47.030;15.396;2023-11-18T12:32:57;0.47;;;0.43;;
8399;SDS011;4237;47.030;15.396;2023-11-18T12:35:41;0.33;;;0.33;;
8399;SDS011;4237;47.030;15.396;2023-11-18T12:38:15;0.30;;;0.30;;
8399;SDS011;4237;47.030;15.396;2023-11-18T12:41:00;0.60;;;0.40;;
8399;SDS011;4237;47.030;15.396;2023-11-18T12:43:50;0.43;;;0.40;;
8399;SDS011;4237;47.030;15.396;2023-11-18T12:49:23;0.40;;;0.40;;
8399;SDS011;4237;47.030;15.396;2023-11-18T12:51:53;0.40;;;0.40;;
8399;SDS011;4237;47.030;15.396;2023-11-18T12:54:23;0.40;;;0.40;;
8399;SDS011;4237;47.030;15.396;2023-11-18T12:56:57;0.43;;;0.40;;
8399;SDS011;4237;47.030;15.396;2023-11-18T12:59:29;0.50;;;0.40;;
8399;SDS011;4237;47.030;15.396;2023-11-18T13:01:58;0.50;;;0.47;;
8399;SDS011;4237;47.030;15.396;2023-11-18T13:04:28;0.40;;;0.40;;
8399;SDS011;4237;47.030;15.396;2023-11-18T13:06:57;0.50;;;0.40;;
8399;SDS011;4237;47.030;15.396;2023-11-18T13:09:26;0.87;;;0.50;;
8399;SDS011;4237;47.030;15.396;2023-11-18T13:11:58;0.70;;;0.60;;
8399;SDS011;4237;47.030;15.396;2023-11-18T13:14:30;0.63;;;0.50;;
8399;SDS011;4237;47.030;15.396;2023-11-18T13:17:04;0.40;;;0.40;;
8399;SDS011;4237;47.030;15.396;2023-11-18T13:19:35;0.50;;;0.40;;
8399;SDS011;4237;47.030;15.396;2023-11-18T13:22:08;1.10;;;0.80;;
8399;SDS011;4237;47.030;15.396;2023-11-18T13:24:39;1.60;;;1.10;;
8399;SDS011;4237;47.030;15.396;2023-11-18T13:27:12;1.27;;;0.97;;
8399;SDS011;4237;47.030;15.396;2023-11-18T13:29:49;0.77;;;0.60;;
8399;SDS011;4237;47.030;15.396;2023-11-18T13:32:19;0.87;;;0.70;;
8399;SDS011;4237;47.030;15.396;2023-11-18T13:34:52;0.97;;;0.50;;
8399;SDS011;4237;47.030;15.396;2023-11-18T13:37:21;0.63;;;0.63;;
8399;SDS011;4237;47.030;15.396;2023-11-18T13:39:54;2.37;;;0.60;;
8399;SDS011;4237;47.030;15.396;2023-11-18T13:42:24;1.60;;;0.70;;
8399;SDS011;4237;47.030;15.396;2023-11-18T13:45:00;0.50;;;0.50;;
8399;SDS011;4237;47.030;15.396;2023-11-18T13:47:35;0.20;;;0.20;;
8399;SDS011;4237;47.030;15.396;2023-11-18T13:50:06;0.40;;;0.40;;
8399;SDS011;4237;47.030;15.396;2023-11-18T13:52:37;0.40;;;0.40;;
8399;SDS011;4237;47.030;15.396;2023-11-18T13:55:06;0.90;;;0.50;;
8399;SDS011;4237;47.030;15.396;2023-11-18T13:57:35;0.50;;;0.40;;
8399;SDS011;4237;47.030;15.396;2023-11-18T14:00:05;0.50;;;0.40;;
8399;SDS011;4237;47.030;15.396;2023-11-18T14:02:36;0.53;;;0.50;;
8399;SDS011;4237;47.030;15.396;2023-11-18T14:05:24;1.27;;;0.50;;
8399;SDS011;4237;47.030;15.396;2023-11-18T14:07:45;0.40;;;0.40;;
8399;SDS011;4237;47.030;15.396;2023-11-18T14:10:15;0.50;;;0.50;;
8399;SDS011;4237;47.030;15.396;2023-11-18T14:13:01;0.90;;;0.60;;
8399;SDS011;4237;47.030;15.396;2023-11-18T14:15:39;0.43;;;0.40;;
8399;SDS011;4237;47.030;15.396;2023-11-18T14:18:10;0.40;;;0.40;;
8399;SDS011;4237;47.030;15.396;2023-11-18T14:23:28;0.43;;;0.43;;
8399;SDS011;4237;47.030;15.396;2023-11-18T14:25:56;0.53;;;0.33;;
8399;SDS011;4237;47.030;15.396;2023-11-18T14:28:25;0.40;;;0.40;;
8399;SDS011;4237;47.030;15.396;2023-11-18T14:30:54;0.47;;;0.40;;
8399;SDS011;4237;47.030;15.396;2023-11-18T14:33:23;0.67;;;0.50;;
8399;SDS011;4237;47.030;15.396;2023-11-18T14:35:51;0.50;;;0.50;;
8399;SDS011;4237;47.030;15.396;2023-11-18T14:38:20;0.60;;;0.50;;
8399;SDS011;4237;47.030;15.396;2023-11-18T14:40:49;0.77;;;0.57;;
8399;SDS011;4237;47.030;15.396;2023-11-18T14:43:18;0.60;;;0.50;;
8399;SDS011;4237;47.030;15.396;2023-11-18T14:45:47;0.77;;;0.60;;
8399;SDS011;4237;47.030;15.396;2023-11-18T14:48:15;0.83;;;0.70;;
8399;SDS011;4237;47.030;15.396;2023-11-18T14:50:44;0.70;;;0.70;;
8399;SDS011;4237;47.030;15.396;2023-11-18T14:53:12;1.00;;;0.90;;
8399;SDS011;4237;47.030;15.396;2023-11-18T14:55:41;1.50;;;1.00;;
8399;SDS011;4237;47.030;15.396;2023-11-18T14:58:10;0.60;;;0.60;;
8399;SDS011;4237;47.030;15.396;2023-11-18T15:00:39;2.67;;;1.20;;
8399;SDS011;4237;47.030;15.396;2023-11-18T15:03:09;2.00;;;1.07;;
8399;SDS011;4237;47.030;15.396;2023-11-18T15:05:38;0.60;;;0.60;;
8399;SDS011;4237;47.030;15.396;2023-11-18T15:08:06;2.17;;;0.80;;
8399;SDS011;4237;47.030;15.396;2023-11-18T15:10:36;1.63;;;0.60;;
8399;SDS011;4237;47.030;15.396;2023-11-18T15:13:06;0.87;;;0.70;;
8399;SDS011;4237;47.030;15.396;2023-11-18T15:15:37;1.30;;;0.60;;
8399;SDS011;4237;47.030;15.396;2023-11-18T15:18:05;0.63;;;0.63;;
8399;SDS011;4237;47.030;15.396;2023-11-18T15:20:41;1.80;;;0.87;;
8399;SDS011;4237;47.030;15.396;2023-11-18T15:23:10;1.13;;;0.80;;
8399;SDS011;4237;47.030;15.396;2023-11-18T15:25:39;1.50;;;1.00;;
8399;SDS011;4237;47.030;15.396;2023-11-18T15:28:08;0.70;;;0.70;;
8399;SDS011;4237;47.030;15.396;2023-11-18T15:30:37;0.53;;;0.53;;
8399;SDS011;4237;47.030;15.396;2023-11-18T15:33:06;0.93;;;0.90;;
8399;SDS011;4237;47.030;15.396;2023-11-18T15:35:35;0.77;;;0.77;;
8399;SDS011;4237;47.030;15.396;2023-11-18T15:38:12;1.40;;;0.80;;
8399;SDS011;4237;47.030;15.396;2023-11-18T15:40:43;3.57;;;0.60;;
8399;SDS011;4237;47.030;15.396;2023-11-18T15:43:11;1.27;;;1.00;;